createdAt,value
2022-12-06T00:01:32.874Z,2.90
2022-12-06T00:04:04.359Z,3.38
2022-12-06T00:06:36.648Z,3.00
2022-12-06T00:09:04.495Z,2.80
2022-12-06T00:11:33.886Z,3.10
2022-12-06T00:14:04.152Z,3.05
2022-12-06T00:16:32.727Z,3.20
2022-12-06T00:19:00.952Z,3.05
2022-12-06T00:21:34.581Z,3.13
2022-12-06T00:24:05.788Z,3.20
2022-12-06T00:26:36.638Z,3.17
2022-12-06T00:29:05.223Z,2.90
2022-12-06T00:31:34.634Z,3.40
2022-12-06T00:34:02.886Z,3.30
2022-12-06T00:36:32.761Z,3.60
2022-12-06T00:39:02.402Z,3.50
2022-12-06T00:41:30.134Z,3.60
2022-12-06T00:43:58.143Z,3.15
2022-12-06T00:46:28.647Z,3.58
2022-12-06T00:48:57.656Z,3.53
2022-12-06T00:51:27.155Z,3.28
2022-12-06T00:53:55.424Z,3.10
2022-12-06T00:56:23.261Z,3.58
2022-12-06T00:58:50.977Z,3.42
2022-12-06T01:01:27.700Z,3.85
2022-12-06T01:03:58.623Z,3.50
2022-12-06T01:06:29.545Z,3.10
2022-12-06T01:08:59.042Z,3.78
2022-12-06T01:11:27.942Z,3.63
2022-12-06T01:13:55.741Z,3.42
2022-12-06T01:16:27.359Z,3.80
2022-12-06T01:18:57.293Z,3.92
2022-12-06T01:21:25.133Z,3.53
2022-12-06T01:23:54.411Z,3.75
2022-12-06T01:26:29.315Z,3.40
2022-12-06T01:28:58.913Z,3.80
2022-12-06T01:31:32.095Z,3.50
2022-12-06T01:34:04.061Z,3.60
2022-12-06T01:36:31.775Z,3.50
2022-12-06T01:39:01.153Z,3.30
2022-12-06T01:41:28.784Z,3.60
2022-12-06T01:43:57.183Z,3.50
2022-12-06T01:46:30.912Z,3.67
2022-12-06T01:49:08.766Z,3.38
2022-12-06T01:51:37.914Z,3.50
2022-12-06T01:54:07.978Z,3.45
2022-12-06T01:56:35.611Z,3.58
2022-12-06T01:59:03.594Z,3.42
2022-12-06T02:01:31.520Z,3.30
2022-12-06T02:04:01.505Z,3.45
2022-12-06T02:06:30.602Z,3.40
2022-12-06T02:08:59.779Z,3.30
2022-12-06T02:11:33.538Z,3.92
2022-12-06T02:14:04.986Z,3.40
2022-12-06T02:17:03.809Z,3.42
2022-12-06T02:19:42.022Z,3.70
2022-12-06T02:22:37.143Z,3.35
2022-12-06T02:25:17.582Z,3.45
2022-12-06T02:28:06.099Z,3.30
2022-12-06T02:31:08.419Z,3.50
2022-12-06T02:34:13.145Z,3.50
2022-12-06T02:37:33.060Z,3.30
2022-12-06T02:40:04.337Z,3.58
2022-12-06T02:42:42.133Z,3.58
2022-12-06T02:45:16.061Z,3.60
2022-12-06T02:47:44.623Z,3.53
2022-12-06T02:50:17.182Z,3.42
2022-12-06T02:52:48.762Z,3.05
2022-12-06T02:55:17.661Z,3.50
2022-12-06T02:57:48.015Z,3.10
2022-12-06T03:00:35.493Z,3.47
2022-12-06T03:03:47.126Z,3.55
2022-12-06T03:06:52.745Z,3.40
2022-12-06T03:09:29.522Z,3.20
2022-12-06T03:12:21.082Z,3.40
2022-12-06T03:15:06.247Z,3.55
2022-12-06T03:17:48.972Z,4.07
2022-12-06T03:20:42.528Z,3.10
2022-12-06T03:23:16.080Z,3.50
2022-12-06T03:25:44.932Z,3.20
2022-12-06T03:28:15.022Z,4.15
2022-12-06T03:30:44.813Z,3.60
2022-12-06T03:33:14.103Z,3.83
2022-12-06T03:35:41.831Z,3.60
2022-12-06T03:38:13.833Z,3.55
2022-12-06T03:40:45.384Z,3.80
2022-12-06T03:43:13.041Z,3.80
2022-12-06T03:45:49.084Z,3.65
2022-12-06T03:48:22.195Z,4.03
2022-12-06T03:50:58.779Z,3.70
2022-12-06T03:53:26.531Z,4.00
2022-12-06T03:55:54.111Z,4.22
2022-12-06T03:58:21.673Z,4.43
2022-12-06T04:00:49.462Z,4.22
2022-12-06T04:03:17.329Z,4.53
2022-12-06T04:05:44.980Z,4.28
2022-12-06T04:08:12.623Z,4.57
2022-12-06T04:10:40.198Z,4.70
2022-12-06T04:13:08.552Z,4.55
2022-12-06T04:15:38.584Z,4.47
2022-12-06T04:18:16.243Z,4.72
2022-12-06T04:21:11.332Z,4.57
2022-12-06T04:23:40.890Z,4.23
2022-12-06T04:26:11.219Z,4.38
2022-12-06T04:28:57.434Z,4.10
2022-12-06T04:34:30.198Z,4.15
2022-12-06T04:37:16.614Z,4.18
2022-12-06T04:39:44.248Z,4.88
2022-12-06T04:42:30.693Z,4.30
2022-12-06T04:44:58.275Z,4.05
2022-12-06T04:47:26.071Z,4.97
2022-12-06T04:49:53.691Z,4.30
2022-12-06T04:52:21.334Z,4.38
2022-12-06T04:54:48.912Z,4.90
2022-12-06T04:57:17.408Z,4.45
2022-12-06T04:59:46.422Z,4.50
2022-12-06T05:02:15.238Z,4.72
2022-12-06T05:04:42.984Z,4.00
2022-12-06T05:07:11.669Z,4.60
2022-12-06T05:09:39.345Z,5.00
2022-12-06T05:12:07.400Z,4.65
2022-12-06T05:14:34.952Z,4.88
2022-12-06T05:17:02.916Z,4.30
2022-12-06T05:19:31.270Z,4.05
2022-12-06T05:21:58.881Z,4.38
2022-12-06T05:24:26.467Z,4.55
2022-12-06T05:26:54.026Z,4.30
2022-12-06T05:29:21.652Z,4.45
2022-12-06T05:31:49.548Z,4.45
2022-12-06T05:34:17.220Z,4.13
2022-12-06T05:36:45.937Z,4.63
2022-12-06T05:39:13.848Z,4.00
2022-12-06T05:41:41.399Z,3.75
2022-12-06T05:44:11.817Z,4.43
2022-12-06T05:46:39.383Z,4.78
2022-12-06T05:49:06.932Z,4.03
2022-12-06T05:51:34.482Z,3.85
2022-12-06T05:54:05.141Z,4.00
2022-12-06T05:56:33.517Z,4.07
2022-12-06T05:59:01.116Z,4.18
2022-12-06T06:01:28.929Z,4.10
2022-12-06T06:03:56.497Z,4.40
2022-12-06T06:06:24.166Z,4.20
2022-12-06T06:08:52.654Z,4.57
2022-12-06T06:11:20.268Z,3.90
2022-12-06T06:13:47.857Z,4.13
2022-12-06T06:16:15.739Z,4.30
2022-12-06T06:18:43.329Z,3.65
2022-12-06T06:21:11.078Z,4.00
2022-12-06T06:23:39.104Z,3.85
2022-12-06T06:26:11.951Z,3.90
2022-12-06T06:28:39.837Z,3.92
2022-12-06T06:31:07.951Z,3.88
2022-12-06T06:33:36.250Z,3.67
2022-12-06T06:36:04.000Z,3.58
2022-12-06T06:38:31.565Z,4.05
2022-12-06T06:41:03.217Z,3.80
2022-12-06T06:43:31.231Z,4.07
2022-12-06T06:46:04.103Z,4.40
2022-12-06T06:48:34.465Z,4.30
2022-12-06T06:51:11.124Z,4.30
2022-12-06T06:53:39.412Z,4.20
2022-12-06T06:56:07.594Z,3.60
2022-12-06T06:58:35.192Z,3.70
2022-12-06T07:01:03.792Z,4.32
2022-12-06T07:03:31.628Z,3.97
2022-12-06T07:06:01.568Z,4.50
2022-12-06T07:08:30.486Z,4.53
2022-12-06T07:10:58.471Z,4.40
2022-12-06T07:13:27.465Z,4.30
2022-12-06T07:15:55.092Z,4.18
2022-12-06T07:18:23.161Z,4.20
2022-12-06T07:21:07.506Z,4.03
2022-12-06T07:23:36.213Z,4.13
2022-12-06T07:26:19.045Z,3.78
2022-12-06T07:28:47.995Z,3.63
2022-12-06T07:31:26.702Z,3.60
2022-12-06T07:33:56.069Z,4.35
2022-12-06T07:36:23.956Z,4.10
2022-12-06T07:38:53.406Z,3.40
2022-12-06T07:41:41.302Z,3.80
2022-12-06T07:44:37.072Z,3.50
2022-12-06T07:47:04.919Z,3.13
2022-12-06T07:49:32.502Z,3.40
2022-12-06T07:52:00.368Z,3.50
2022-12-06T07:54:28.070Z,3.38
2022-12-06T07:56:56.443Z,3.80
2022-12-06T07:59:24.716Z,3.28
2022-12-06T08:01:53.226Z,3.40
2022-12-06T08:04:21.311Z,3.20
2022-12-06T08:06:48.958Z,3.70
2022-12-06T08:09:16.765Z,3.40
2022-12-06T08:11:44.337Z,2.90
2022-12-06T08:14:12.204Z,3.15
2022-12-06T08:16:41.348Z,3.15
2022-12-06T08:19:09.278Z,3.10
2022-12-06T08:21:36.815Z,2.95
2022-12-06T08:24:04.683Z,3.35
2022-12-06T08:26:32.244Z,3.17
2022-12-06T08:29:03.355Z,3.15
2022-12-06T08:31:31.605Z,3.00
2022-12-06T08:33:59.252Z,3.20
2022-12-06T08:36:28.455Z,3.17
2022-12-06T08:38:56.557Z,3.70
2022-12-06T08:41:42.680Z,3.70
2022-12-06T08:46:40.169Z,3.08
2022-12-06T08:49:08.138Z,3.20
2022-12-06T08:51:36.529Z,3.00
2022-12-06T08:54:04.303Z,2.72
2022-12-06T08:56:31.954Z,3.28
2022-12-06T08:58:59.543Z,3.15
2022-12-06T09:01:34.258Z,3.50
2022-12-06T09:04:06.240Z,3.60
2022-12-06T09:06:33.973Z,3.80
2022-12-06T09:09:01.534Z,3.97
2022-12-06T09:11:29.109Z,3.60
2022-12-06T09:13:56.737Z,3.22
2022-12-06T09:16:24.944Z,3.70
2022-12-06T09:18:52.961Z,3.63
2022-12-06T09:21:25.899Z,3.60
2022-12-06T09:23:57.078Z,4.00
2022-12-06T09:26:25.534Z,3.75
2022-12-06T09:28:55.332Z,3.88
2022-12-06T09:31:23.100Z,3.67
2022-12-06T09:33:51.716Z,3.47
2022-12-06T09:36:27.237Z,3.70
2022-12-06T09:38:59.367Z,3.80
2022-12-06T09:41:48.612Z,3.60
2022-12-06T09:44:40.910Z,3.60
2022-12-06T09:47:27.224Z,3.70
2022-12-06T09:50:16.965Z,3.88
2022-12-06T09:53:12.169Z,4.93
2022-12-06T09:55:52.559Z,4.50
2022-12-06T09:58:41.345Z,3.33
2022-12-06T10:01:30.757Z,3.72
2022-12-06T10:04:31.607Z,3.40
2022-12-06T10:07:12.222Z,3.33
2022-12-06T10:09:42.821Z,2.92
2022-12-06T10:12:25.284Z,3.47
2022-12-06T10:15:14.046Z,3.08
2022-12-06T10:17:53.607Z,3.05
2022-12-06T10:20:28.937Z,3.00
2022-12-06T10:23:05.261Z,3.10
2022-12-06T10:25:59.993Z,2.90
2022-12-06T10:28:45.431Z,2.50
2022-12-06T10:31:27.293Z,2.85
2022-12-06T10:34:29.679Z,2.83
2022-12-06T10:37:16.856Z,2.97
2022-12-06T10:39:52.505Z,2.78
2022-12-06T10:42:23.162Z,3.05
2022-12-06T10:44:59.879Z,2.90
2022-12-06T10:50:04.279Z,3.30
2022-12-06T10:52:43.950Z,3.08
2022-12-06T10:55:12.426Z,3.30
2022-12-06T10:57:51.674Z,3.47
2022-12-06T11:00:22.138Z,2.58
2022-12-06T11:03:14.882Z,2.58
2022-12-06T11:05:55.127Z,3.08
2022-12-06T11:08:28.368Z,2.88
2022-12-06T11:10:57.141Z,2.95
2022-12-06T11:13:53.779Z,2.75
2022-12-06T11:16:27.843Z,3.08
2022-12-06T11:19:01.015Z,3.03
2022-12-06T11:21:32.003Z,3.15
2022-12-06T11:24:14.512Z,2.90
2022-12-06T11:26:49.284Z,3.05
2022-12-06T11:29:17.270Z,2.95
2022-12-06T11:31:51.834Z,2.83
2022-12-06T11:34:33.376Z,2.83
2022-12-06T11:37:02.374Z,3.00
2022-12-06T11:39:31.162Z,2.78
2022-12-06T11:42:02.423Z,2.65
2022-12-06T11:44:50.119Z,2.88
2022-12-06T11:47:21.903Z,2.70
2022-12-06T11:49:51.265Z,2.83
2022-12-06T11:52:34.364Z,2.50
2022-12-06T11:55:06.242Z,3.20
2022-12-06T11:57:41.400Z,3.00
2022-12-06T12:00:23.513Z,4.57
2022-12-06T12:02:54.298Z,3.72
2022-12-06T12:05:30.929Z,3.10
2022-12-06T12:08:17.721Z,2.95
2022-12-06T12:10:46.528Z,2.85
2022-12-06T12:13:32.554Z,3.20
2022-12-06T12:16:12.312Z,3.55
2022-12-06T12:18:45.503Z,3.03
2022-12-06T12:21:13.061Z,3.00
2022-12-06T12:23:47.845Z,2.85
2022-12-06T12:26:20.930Z,2.95
2022-12-06T12:29:15.519Z,2.80
2022-12-06T12:31:50.140Z,3.00
2022-12-06T12:34:29.538Z,3.08
2022-12-06T12:36:59.358Z,3.20
2022-12-06T12:39:51.780Z,3.25
2022-12-06T12:42:31.450Z,2.40
2022-12-06T12:45:01.564Z,2.60
2022-12-06T12:47:29.673Z,2.97
2022-12-06T12:50:18.306Z,2.90
2022-12-06T12:52:46.496Z,2.80
2022-12-06T12:55:16.111Z,2.83
2022-12-06T12:57:46.082Z,3.13
2022-12-06T13:00:17.696Z,2.80
2022-12-06T13:02:55.843Z,2.80
2022-12-06T13:05:34.705Z,3.20
2022-12-06T13:08:26.371Z,3.10
2022-12-06T13:10:59.019Z,3.40
2022-12-06T13:13:42.511Z,3.03
2022-12-06T13:16:13.631Z,3.30
2022-12-06T13:18:49.980Z,3.22
2022-12-06T13:21:20.928Z,3.45
2022-12-06T13:23:53.670Z,3.13
2022-12-06T13:26:31.513Z,2.97
2022-12-06T13:29:05.482Z,2.83
2022-12-06T13:31:36.544Z,3.30
2022-12-06T13:34:24.312Z,3.03
2022-12-06T13:36:52.313Z,3.13
2022-12-06T13:39:49.156Z,3.67
2022-12-06T13:42:40.890Z,3.00
2022-12-06T13:45:41.179Z,3.75
2022-12-06T13:48:27.058Z,2.95
2022-12-06T13:51:03.708Z,2.70
2022-12-06T13:53:35.869Z,3.15
2022-12-06T13:56:28.316Z,2.70
2022-12-06T13:58:57.884Z,3.55
2022-12-06T14:01:40.021Z,2.80
2022-12-06T14:09:43.608Z,2.67
2022-12-06T14:12:21.160Z,2.97
2022-12-06T14:14:59.675Z,2.80
2022-12-06T14:20:31.465Z,3.15
2022-12-06T14:22:59.154Z,2.90
2022-12-06T14:25:28.726Z,2.78
2022-12-06T14:28:10.387Z,2.80
2022-12-06T14:30:39.255Z,2.83
2022-12-06T14:33:21.080Z,3.30
2022-12-06T14:35:53.782Z,2.60
2022-12-06T14:38:29.219Z,2.60
2022-12-06T14:41:15.695Z,2.70
2022-12-06T14:43:47.300Z,3.20
2022-12-06T14:46:16.884Z,2.60
2022-12-06T14:49:03.842Z,2.75
2022-12-06T14:51:38.009Z,2.75
2022-12-06T14:54:32.984Z,3.05
2022-12-06T14:57:01.838Z,2.80
2022-12-06T15:00:12.902Z,2.70
2022-12-06T15:02:26.599Z,2.67
2022-12-06T15:04:54.205Z,3.23
2022-12-06T15:07:40.959Z,2.72
2022-12-06T15:10:10.083Z,3.10
2022-12-06T15:12:56.396Z,3.78
2022-12-06T15:15:35.808Z,3.20
2022-12-06T15:18:12.741Z,3.00
2022-12-06T15:20:40.492Z,3.25
2022-12-06T15:23:32.980Z,3.00
2022-12-06T15:26:00.609Z,3.47
2022-12-06T15:28:28.234Z,3.17
2022-12-06T15:30:55.862Z,3.15
2022-12-06T15:33:25.290Z,3.30
2022-12-06T15:35:53.220Z,3.20
2022-12-06T15:38:20.852Z,3.13
2022-12-06T15:40:50.370Z,3.20
2022-12-06T15:43:30.940Z,3.30
2022-12-06T15:46:01.122Z,3.50
2022-12-06T15:48:29.892Z,3.75
2022-12-06T15:50:59.845Z,3.53
2022-12-06T15:53:29.075Z,3.72
2022-12-06T15:55:57.092Z,3.50
2022-12-06T15:58:24.892Z,4.00
2022-12-06T16:00:52.485Z,3.95
2022-12-06T16:03:20.064Z,3.80
2022-12-06T16:05:47.675Z,3.67
2022-12-06T16:08:15.382Z,3.70
2022-12-06T16:11:10.808Z,4.00
2022-12-06T16:13:31.508Z,3.53
2022-12-06T16:15:59.149Z,3.72
2022-12-06T16:18:26.980Z,3.53
2022-12-06T16:20:54.777Z,3.17
2022-12-06T16:24:11.828Z,3.17
2022-12-06T16:26:41.706Z,3.40
2022-12-06T16:29:23.068Z,3.53
2022-12-06T16:31:51.444Z,3.75
2022-12-06T16:34:19.580Z,3.22
2022-12-06T16:37:09.310Z,3.85
2022-12-06T16:39:36.948Z,4.05
2022-12-06T16:42:05.182Z,4.30
2022-12-06T16:44:32.842Z,3.97
2022-12-06T16:47:00.522Z,3.35
2022-12-06T16:49:45.929Z,3.95
2022-12-06T16:54:42.442Z,4.00
2022-12-06T16:57:12.143Z,3.55
2022-12-06T16:59:40.582Z,3.95
2022-12-06T17:02:26.839Z,4.20
2022-12-06T17:04:55.156Z,3.78
2022-12-06T17:07:22.918Z,3.63
2022-12-06T17:09:50.459Z,3.50
2022-12-06T17:12:18.072Z,3.58
2022-12-06T17:14:45.765Z,3.70
2022-12-06T17:17:21.627Z,3.50
2022-12-06T17:19:49.782Z,3.60
2022-12-06T17:22:18.656Z,3.97
2022-12-06T17:24:46.652Z,3.88
2022-12-06T17:27:15.239Z,3.70
2022-12-06T17:29:44.165Z,3.53
2022-12-06T17:32:12.551Z,3.70
2022-12-06T17:34:40.126Z,3.65
2022-12-06T17:37:07.917Z,3.22
2022-12-06T17:39:35.762Z,3.72
2022-12-06T17:42:22.562Z,4.22
2022-12-06T17:44:53.434Z,4.63
2022-12-06T17:47:21.386Z,3.85
2022-12-06T17:49:49.078Z,4.15
2022-12-06T17:52:16.651Z,3.97
2022-12-06T17:54:44.546Z,3.83
2022-12-06T17:57:17.189Z,4.45
2022-12-06T17:59:46.951Z,3.92
2022-12-06T18:02:18.019Z,3.67
2022-12-06T18:04:47.437Z,3.83
2022-12-06T18:07:16.140Z,3.72
2022-12-06T18:09:43.749Z,3.70
2022-12-06T18:12:12.698Z,3.60
2022-12-06T18:14:40.362Z,3.58
2022-12-06T18:17:10.237Z,3.83
2022-12-06T18:19:37.846Z,3.45
2022-12-06T18:22:05.479Z,3.50
2022-12-06T18:24:35.871Z,3.50
2022-12-06T18:27:07.512Z,3.53
2022-12-06T18:29:35.586Z,4.18
2022-12-06T18:32:04.840Z,4.88
2022-12-06T18:34:32.522Z,5.25
2022-12-06T18:37:00.307Z,3.10
2022-12-06T18:39:29.569Z,3.85
2022-12-06T18:41:57.172Z,3.83
2022-12-06T18:44:25.316Z,3.42
2022-12-06T18:46:52.900Z,3.40
2022-12-06T18:49:20.523Z,3.45
2022-12-06T18:51:48.150Z,3.50
2022-12-06T18:54:15.764Z,4.15
2022-12-06T18:56:43.585Z,4.00
2022-12-06T18:59:12.010Z,4.07
2022-12-06T19:01:40.721Z,3.92
2022-12-06T19:04:09.898Z,3.92
2022-12-06T19:06:38.745Z,4.13
2022-12-06T19:09:09.511Z,4.10
2022-12-06T19:11:38.765Z,4.15
2022-12-06T19:14:06.831Z,3.80
2022-12-06T19:16:43.472Z,3.67
2022-12-06T19:19:21.161Z,3.30
2022-12-06T19:21:49.846Z,4.00
2022-12-06T19:24:20.763Z,3.70
2022-12-06T19:26:49.113Z,3.80
2022-12-06T19:29:16.720Z,4.00
2022-12-06T19:31:44.426Z,4.20
2022-12-06T19:34:17.334Z,3.75
2022-12-06T19:36:44.997Z,3.90
2022-12-06T19:39:13.977Z,3.90
2022-12-06T19:42:00.998Z,3.83
2022-12-06T19:44:29.268Z,4.25
2022-12-06T19:46:57.220Z,3.90
2022-12-06T19:49:26.056Z,4.00
2022-12-06T19:51:54.349Z,4.15
2022-12-06T19:54:24.868Z,4.15
2022-12-06T19:56:53.983Z,4.30
2022-12-06T19:59:22.853Z,3.95
2022-12-06T20:01:52.825Z,4.03
2022-12-06T20:04:22.815Z,3.70
2022-12-06T20:06:51.284Z,3.60
2022-12-06T20:09:20.450Z,4.32
2022-12-06T20:12:04.050Z,4.50
2022-12-06T20:14:37.119Z,4.32
2022-12-06T20:17:14.030Z,4.93
2022-12-06T20:19:43.295Z,4.70
2022-12-06T20:22:11.824Z,4.55
2022-12-06T20:24:39.628Z,4.38
2022-12-06T20:27:07.262Z,4.40
2022-12-06T20:29:34.899Z,4.28
2022-12-06T20:32:02.943Z,4.60
2022-12-06T20:34:34.394Z,4.20
2022-12-06T20:37:03.935Z,4.82
2022-12-06T20:39:35.870Z,4.55
2022-12-06T20:42:05.999Z,4.22
2022-12-06T20:44:34.697Z,4.70
2022-12-06T20:47:04.689Z,4.70
2022-12-06T20:49:32.350Z,4.35
2022-12-06T20:52:02.166Z,4.43
2022-12-06T20:54:29.823Z,4.40
2022-12-06T20:56:58.395Z,4.30
2022-12-06T20:59:26.183Z,4.47
2022-12-06T21:01:54.932Z,4.43
2022-12-06T21:04:22.683Z,4.32
2022-12-06T21:06:50.272Z,4.32
2022-12-06T21:09:17.942Z,4.35
2022-12-06T21:11:45.572Z,4.28
2022-12-06T21:14:14.436Z,4.55
2022-12-06T21:16:43.166Z,4.03
2022-12-06T21:19:16.733Z,4.90
2022-12-06T21:21:49.721Z,4.80
2022-12-06T21:24:21.442Z,4.45
2022-12-06T21:26:49.411Z,4.40
2022-12-06T21:29:19.099Z,4.47
2022-12-06T21:31:46.879Z,4.13
2022-12-06T21:34:15.764Z,4.78
2022-12-06T21:36:43.859Z,4.85
2022-12-06T21:39:13.587Z,4.50
2022-12-06T21:41:41.237Z,4.97
2022-12-06T21:44:09.456Z,4.80
2022-12-06T21:46:37.193Z,4.90
2022-12-06T21:49:04.843Z,5.15
2022-12-06T21:51:32.934Z,5.40
2022-12-06T21:54:00.549Z,4.82
2022-12-06T21:56:30.067Z,4.60
2022-12-06T21:59:00.125Z,4.97
2022-12-06T22:01:29.127Z,5.10
2022-12-06T22:03:58.967Z,4.70
2022-12-06T22:06:26.994Z,5.32
2022-12-06T22:09:04.212Z,4.82
2022-12-06T22:11:32.761Z,4.88
2022-12-06T22:14:01.042Z,5.28
2022-12-06T22:16:29.220Z,5.95
2022-12-06T22:18:57.654Z,6.88
2022-12-06T22:21:27.723Z,5.32
2022-12-06T22:23:58.068Z,5.20
2022-12-06T22:26:28.372Z,5.13
2022-12-06T22:28:56.163Z,5.30
2022-12-06T22:31:26.152Z,4.70
2022-12-06T22:33:54.423Z,4.88
2022-12-06T22:36:22.682Z,5.18
2022-12-06T22:38:55.619Z,4.95
2022-12-06T22:41:24.447Z,4.65
2022-12-06T22:43:57.286Z,5.70
2022-12-06T22:46:26.468Z,5.07
2022-12-06T22:48:55.555Z,4.93
2022-12-06T22:51:32.009Z,5.40
2022-12-06T22:56:48.658Z,5.25
2022-12-06T22:59:17.178Z,5.15
2022-12-06T23:01:44.904Z,5.10
2022-12-06T23:04:12.666Z,5.60
2022-12-06T23:06:40.678Z,5.00
2022-12-06T23:09:08.408Z,4.97
2022-12-06T23:11:37.163Z,5.13
2022-12-06T23:14:04.814Z,5.30
2022-12-06T23:16:33.178Z,5.00
2022-12-06T23:19:01.819Z,4.80
2022-12-06T23:21:34.415Z,4.90
2022-12-06T23:24:07.514Z,5.22
2022-12-06T23:26:37.659Z,4.95
2022-12-06T23:29:05.237Z,5.05
2022-12-06T23:31:35.231Z,5.07
2022-12-06T23:34:06.409Z,5.20
2022-12-06T23:36:35.733Z,5.07
2022-12-06T23:39:04.137Z,4.80
2022-12-06T23:41:32.456Z,4.90
2022-12-06T23:44:00.363Z,5.45
2022-12-06T23:46:30.715Z,5.13
2022-12-06T23:49:00.230Z,5.60
2022-12-06T23:51:34.111Z,5.18
2022-12-06T23:54:03.573Z,5.00
2022-12-06T23:56:33.398Z,4.88
2022-12-06T23:59:01.649Z,4.68
